| time (UTC) | temp F | wind direction | speed MPH | gust MPH | rain 1hr in | rain 24hr in | rain mn in | humidity % | barometer mb |
| 20260504220703 | 78 | 190 | 3.0 | 8.0 | 0.00 | 0.00 | 0.00 | 45 | 1006.7 |
| 20260504220201 | 79 | 254 | 2.0 | 5.0 | 0.00 | 0.00 | 0.00 | 45 | 1006.9 |
| 20260504215656 | 78 | 198 | 2.0 | 5.0 | 0.00 | 0.00 | 0.00 | 45 | 1006.9 |
| 20260504215154 | 78 | 216 | 2.0 | 10.0 | 0.00 | 0.00 | 0.00 | 45 | 1006.9 |
| 20260504214649 | 79 | 178 | 4.0 | 6.0 | 0.00 | 0.00 | 0.00 | 45 | 1006.7 |
| 20260504214146 | 80 | 195 | 3.0 | 6.0 | 0.00 | 0.00 | 0.00 | 44 | 1006.8 |
| 20260504213643 | 80 | 199 | 3.0 | 3.0 | 0.00 | 0.00 | 0.00 | 44 | 1006.9 |
| 20260504213140 | 80 | 340 | 2.0 | 8.0 | 0.00 | 0.00 | 0.00 | 44 | 1007.0 |
| 20260504212636 | 80 | 212 | 2.0 | 3.0 | 0.00 | 0.00 | 0.00 | 44 | 1007.1 |
| 20260504212133 | 79 | 218 | 0.0 | 3.0 | 0.00 | 0.00 | 0.00 | 46 | 1007.1 |
| 20260504211631 | 80 | 224 | 3.0 | 7.0 | 0.00 | 0.00 | 0.00 | 43 | 1007.2 |
| 20260504211126 | 80 | 309 | 1.0 | 5.0 | 0.00 | 0.00 | 0.00 | 45 | 1007.3 |
| 20260504210625 | 80 | 174 | 2.0 | 5.0 | 0.00 | 0.00 | 0.00 | 45 | 1007.1 |
| 20260504210120 | 80 | 217 | 3.0 | 10.0 | 0.00 | 0.00 | 0.00 | 42 | 1007.1 |
| 20260504205618 | 80 | 208 | 1.0 | 3.0 | 0.00 | 0.00 | 0.00 | 46 | 1007.2 |
| 20260504205116 | 80 | 278 | 2.0 | 5.0 | 0.00 | 0.00 | 0.00 | 44 | 1007.3 |
| 20260504204614 | 79 | 204 | 4.0 | 7.0 | 0.00 | 0.00 | 0.00 | 43 | 1007.2 |
| 20260504204113 | 80 | 339 | 1.0 | 7.0 | 0.00 | 0.00 | 0.00 | 43 | 1007.3 |
| 20260504203611 | 80 | 215 | 4.0 | 7.0 | 0.00 | 0.00 | 0.00 | 41 | 1007.6 |
| 20260504203108 | 81 | 191 | 4.0 | 6.0 | 0.00 | 0.00 | 0.00 | 42 | 1007.3 |
| 20260504202603 | 80 | 306 | 0.0 | 5.0 | 0.00 | 0.00 | 0.00 | 44 | 1007.3 |
| 20260504202100 | 80 | 204 | 3.0 | 9.0 | 0.00 | 0.00 | 0.00 | 44 | 1007.6 |
| 20260504201556 | 80 | 91 | 3.0 | 9.0 | 0.00 | 0.00 | 0.00 | 43 | 1007.4 |
| 20260504201055 | 80 | 249 | 1.0 | 5.0 | 0.00 | 0.00 | 0.00 | 44 | 1007.6 |
| 20260504200550 | 80 | 341 | 1.0 | 6.0 | 0.00 | 0.00 | 0.00 | 45 | 1007.8 |
| 20260504200048 | 80 | 331 | 1.0 | 8.0 | 0.00 | 0.00 | 0.00 | 42 | 1007.8 |
| 20260504195544 | 80 | 256 | 0.0 | 5.0 | 0.00 | 0.00 | 0.00 | 43 | 1007.8 |
| 20260504195040 | 80 | 93 | 4.0 | 10.0 | 0.00 | 0.00 | 0.00 | 40 | 1007.8 |
| 20260504194537 | 80 | 112 | 3.0 | 6.0 | 0.00 | 0.00 | 0.00 | 42 | 1008.0 |
| 20260504194032 | 81 | 292 | 5.0 | 11.0 | 0.00 | 0.00 | 0.00 | 44 | 1008.1 |
| 20260504193529 | 80 | 255 | 1.0 | 6.0 | 0.00 | 0.00 | 0.00 | 42 | 1008.2 |
| 20260504193028 | 80 | 105 | 3.0 | 16.0 | 0.00 | 0.00 | 0.00 | 40 | 1008.0 |
| 20260504192526 | 80 | 320 | 4.0 | 8.0 | 0.00 | 0.00 | 0.00 | 43 | 1008.0 |
| 20260504192024 | 80 | 252 | 4.0 | 8.0 | 0.00 | 0.00 | 0.00 | 42 | 1008.1 |
| 20260504191521 | 80 | 73 | 1.0 | 3.0 | 0.00 | 0.00 | 0.00 | 44 | 1008.2 |
| 20260504191017 | 80 | 265 | 3.0 | 6.0 | 0.00 | 0.00 | 0.00 | 42 | 1008.2 |
| 20260504190514 | 80 | 185 | 3.0 | 10.0 | 0.00 | 0.00 | 0.00 | 42 | 1008.5 |
| 20260504190010 | 80 | 158 | 4.0 | 8.0 | 0.00 | 0.00 | 0.00 | 42 | 1008.4 |
| 20260504185507 | 80 | 176 | 3.0 | 7.0 | 0.00 | 0.00 | 0.00 | 41 | 1008.4 |
| 20260504185003 | 79 | 299 | 1.0 | 6.0 | 0.00 | 0.00 | 0.00 | 44 | 1008.6 |
| 20260504184459 | 79 | 211 | 3.0 | 8.0 | 0.00 | 0.00 | 0.00 | 42 | 1008.5 |
| 20260504183954 | 79 | 201 | 5.0 | 11.0 | 0.00 | 0.00 | 0.00 | 40 | 1008.7 |
| 20260504183452 | 79 | 71 | 6.0 | 9.0 | 0.00 | 0.00 | 0.00 | 44 | 1008.7 |
| 20260504182950 | 79 | 279 | 3.0 | 7.0 | 0.00 | 0.00 | 0.00 | 43 | 1008.6 |
| 20260504182446 | 79 | 208 | 2.0 | 7.0 | 0.00 | 0.00 | 0.00 | 42 | 1008.7 |
| 20260504181944 | 80 | 110 | 5.0 | 8.0 | 0.00 | 0.00 | 0.00 | 41 | 1008.6 |
| 20260504181441 | 79 | 99 | 2.0 | 3.0 | 0.00 | 0.00 | 0.00 | 44 | 1008.8 |
| 20260504180939 | 79 | 183 | 3.0 | 8.0 | 0.00 | 0.00 | 0.00 | 43 | 1008.9 |
| 20260504180438 | 79 | 246 | 5.0 | 9.0 | 0.00 | 0.00 | 0.00 | 40 | 1008.8 |
| 20260504175936 | 79 | 224 | 2.0 | 9.0 | 0.00 | 0.00 | 0.00 | 42 | 1008.9 |
| 20260504175432 | 79 | 232 | 5.0 | 9.0 | 0.00 | 0.00 | 0.00 | 40 | 1009.0 |
| 20260504174930 | 78 | 319 | 0.0 | 2.0 | 0.00 | 0.00 | 0.00 | 46 | 1008.9 |
| 20260504174428 | 78 | 126 | 1.0 | 7.0 | 0.00 | 0.00 | 0.00 | 43 | 1009.2 |
| 20260504173925 | 77 | 300 | 1.0 | 6.0 | 0.00 | 0.00 | 0.00 | 45 | 1009.0 |
| 20260504173421 | 77 | 258 | 3.0 | 9.0 | 0.00 | 0.00 | 0.00 | 43 | 1009.2 |
| 20260504172919 | 77 | 329 | 4.0 | 7.0 | 0.00 | 0.00 | 0.00 | 45 | 1009.2 |
| 20260504172414 | 77 | 172 | 2.0 | 6.0 | 0.00 | 0.00 | 0.00 | 43 | 1009.1 |
| 20260504171911 | 77 | 14 | 1.0 | 9.0 | 0.00 | 0.00 | 0.00 | 45 | 1009.2 |
| 20260504171408 | 77 | 266 | 3.0 | 6.0 | 0.00 | 0.00 | 0.00 | 44 | 1009.3 |
| 20260504170905 | 76 | 282 | 1.0 | 10.0 | 0.00 | 0.00 | 0.00 | 46 | 1009.3 |
| 20260504170402 | 77 | 268 | 3.0 | 9.0 | 0.00 | 0.00 | 0.00 | 47 | 1009.1 |
| 20260504160320 | 74 | 276 | 2.0 | 3.0 | 0.00 | 0.00 | 0.00 | 55 | 1009.9 |
| 20260504150745 | 72 | 231 | 1.0 | 7.0 | 0.00 | 0.00 | 0.00 | 55 | 1010.2 |
| 20260504150242 | 71 | 232 | 2.0 | 9.0 | 0.00 | 0.00 | 0.00 | 53 | 1010.1 |
| 20260504141211 | 68 | 213 | 2.0 | 11.0 | 0.00 | 0.00 | 0.00 | 62 | 1010.8 |
| 20260504140708 | 68 | 59 | 2.0 | 5.0 | 0.00 | 0.00 | 0.00 | 64 | 1010.6 |
| 20260504140203 | 67 | 78 | 1.0 | 9.0 | 0.00 | 0.00 | 0.00 | 63 | 1010.9 |
| 20260504130632 | 63 | 244 | 1.0 | 2.0 | 0.00 | 0.00 | 0.00 | 75 | 1011.0 |
| 20260504130129 | 63 | 277 | 1.0 | 6.0 | 0.00 | 0.00 | 0.00 | 74 | 1010.9 |
| 20260504110520 | 57 | 204 | 2.0 | 2.0 | 0.00 | 0.00 | 0.00 | 85 | 1010.1 |
| 20260504100437 | 55 | 217 | 1.0 | 1.0 | 0.00 | 0.00 | 0.00 | 88 | 1010.4 |
| 20260504081830 | 59 | 243 | 1.0 | 3.0 | 0.00 | 0.00 | 0.00 | 81 | 1010.5 |
| 20260504081326 | 58 | 247 | 0.0 | 3.0 | 0.00 | 0.00 | 0.00 | 79 | 1010.6 |
| 20260504080822 | 59 | 219 | 2.0 | 3.0 | 0.00 | 0.00 | 0.00 | 80 | 1010.5 |
| 20260504080320 | 59 | 219 | 1.0 | 2.0 | 0.00 | 0.00 | 0.00 | 79 | 1010.6 |
| 20260504070247 | 59 | 233 | 2.0 | 3.0 | 0.00 | 0.00 | 0.00 | 77 | 1010.9 |
| 20260504060207 | 61 | 232 | 1.0 | 2.0 | 0.00 | 0.00 | 0.00 | 74 | 1011.9 |
| 20260504050635 | 60 | 221 | 1.0 | 2.0 | 0.00 | 0.00 | 0.00 | 75 | 1012.7 |
| 20260504050132 | 60 | 232 | 1.0 | 2.0 | 0.00 | 0.00 | 0.00 | 75 | 1012.7 |
| 20260504045629 | 60 | 209 | 1.0 | 2.0 | 0.00 | 0.00 | 0.00 | 76 | 1012.8 |
| 20260504045124 | 60 | 242 | 1.0 | 3.0 | 0.00 | 0.00 | 0.00 | 77 | 1012.8 |
| 20260504044622 | 60 | 198 | 2.0 | 2.0 | 0.00 | 0.00 | 0.00 | 76 | 1012.7 |
| 20260504044118 | 60 | 253 | 1.0 | 2.0 | 0.00 | 0.00 | 0.00 | 76 | 1012.8 |
| 20260504043615 | 60 | 226 | 1.0 | 2.0 | 0.00 | 0.00 | 0.00 | 76 | 1012.9 |
| 20260504043113 | 59 | 250 | 1.0 | 2.0 | 0.00 | 0.00 | 0.00 | 77 | 1012.9 |
| 20260504042610 | 59 | 219 | 2.0 | 2.0 | 0.00 | 0.00 | 0.00 | 77 | 1012.9 |
| 20260504042107 | 60 | 225 | 1.0 | 2.0 | 0.00 | 0.00 | 0.00 | 76 | 1013.0 |
| 20260504041602 | 60 | 270 | 0.0 | 2.0 | 0.00 | 0.00 | 0.00 | 76 | 1013.1 |
| 20260504041059 | 60 | 245 | 0.0 | 1.0 | 0.00 | 0.00 | 0.00 | 76 | 1013.0 |
| 20260504040556 | 60 | 262 | 0.0 | 1.0 | 0.00 | 0.00 | 0.00 | 76 | 1013.1 |
| 20260504040053 | 60 | 260 | 0.0 | 1.0 | 0.00 | 0.00 | 0.00 | 76 | 1013.0 |
| 20260504035549 | 60 | 265 | 0.0 | 1.0 | 0.00 | 0.00 | 0.00 | 75 | 1013.1 |
| 20260504035046 | 60 | 232 | 1.0 | 2.0 | 0.00 | 0.00 | 0.00 | 74 | 1013.1 |
| 20260504034544 | 60 | 234 | 1.0 | 2.0 | 0.00 | 0.00 | 0.00 | 74 | 1013.1 |
| 20260504034040 | 60 | 266 | 1.0 | 1.0 | 0.00 | 0.00 | 0.00 | 75 | 1013.1 |
| 20260504033538 | 60 | 271 | 0.0 | 2.0 | 0.00 | 0.00 | 0.00 | 74 | 1013.1 |
| 20260504033035 | 61 | 248 | 1.0 | 1.0 | 0.00 | 0.00 | 0.00 | 74 | 1013.1 |
| 20260504032532 | 61 | 233 | 1.0 | 3.0 | 0.00 | 0.00 | 0.00 | 72 | 1013.1 |
| 20260504032029 | 61 | 232 | 1.0 | 2.0 | 0.00 | 0.00 | 0.00 | 73 | 1013.2 |
| 20260504031526 | 61 | 265 | 0.0 | 1.0 | 0.00 | 0.00 | 0.00 | 73 | 1013.3 |
| 20260504031022 | 61 | 242 | 1.0 | 1.0 | 0.00 | 0.00 | 0.00 | 72 | 1013.2 |
| 20260504030520 | 61 | 273 | 1.0 | 2.0 | 0.00 | 0.00 | 0.00 | 72 | 1013.1 |
| 20260504030016 | 61 | 227 | 1.0 | 2.0 | 0.00 | 0.00 | 0.00 | 71 | 1013.2 |
| 20260504025513 | 61 | 264 | 1.0 | 2.0 | 0.00 | 0.00 | 0.00 | 72 | 1013.3 |
| 20260504025009 | 61 | 252 | 1.0 | 1.0 | 0.00 | 0.00 | 0.00 | 71 | 1013.2 |
| 20260504024507 | 62 | 244 | 1.0 | 3.0 | 0.00 | 0.00 | 0.00 | 70 | 1013.1 |
| 20260504024004 | 61 | 40 | 1.0 | 2.0 | 0.00 | 0.00 | 0.00 | 71 | 1013.2 |
| 20260504023500 | 61 | 258 | 0.0 | 2.0 | 0.00 | 0.00 | 0.00 | 71 | 1013.1 |
| 20260504022956 | 61 | 272 | 0.0 | 1.0 | 0.00 | 0.00 | 0.00 | 71 | 1013.3 |
| 20260504022452 | 62 | 221 | 1.0 | 2.0 | 0.00 | 0.00 | 0.00 | 70 | 1013.1 |
| 20260504021949 | 62 | 249 | 1.0 | 1.0 | 0.00 | 0.00 | 0.00 | 69 | 1013.0 |
| 20260504021446 | 62 | 273 | 0.0 | 2.0 | 0.00 | 0.00 | 0.00 | 70 | 1013.2 |
| 20260504020943 | 62 | 269 | 0.0 | 1.0 | 0.00 | 0.00 | 0.00 | 69 | 1013.1 |
| 20260504020440 | 62 | 253 | 0.0 | 1.0 | 0.00 | 0.00 | 0.00 | 67 | 1013.1 |
| 20260504015937 | 62 | 257 | 1.0 | 2.0 | 0.00 | 0.00 | 0.00 | 68 | 1013.0 |
| 20260504015433 | 62 | 297 | 1.0 | 2.0 | 0.00 | 0.00 | 0.00 | 67 | 1012.8 |
| 20260504014929 | 62 | 263 | 1.0 | 1.0 | 0.00 | 0.00 | 0.00 | 67 | 1012.8 |
| 20260504014425 | 63 | 268 | 1.0 | 1.0 | 0.00 | 0.00 | 0.00 | 66 | 1012.8 |
| 20260504013922 | 63 | 258 | 1.0 | 3.0 | 0.00 | 0.00 | 0.00 | 65 | 1012.8 |
| 20260504013421 | 63 | 255 | 1.0 | 1.0 | 0.00 | 0.00 | 0.00 | 67 | 1013.0 |
| 20260504012916 | 63 | 220 | 2.0 | 2.0 | 0.00 | 0.00 | 0.00 | 65 | 1012.6 |
| 20260504012414 | 63 | 234 | 1.0 | 2.0 | 0.00 | 0.00 | 0.00 | 65 | 1012.6 |
| 20260504011911 | 63 | 254 | 0.0 | 1.0 | 0.00 | 0.00 | 0.00 | 64 | 1012.6 |
| 20260504011408 | 64 | 251 | 0.0 | 1.0 | 0.00 | 0.00 | 0.00 | 65 | 1012.7 |
| 20260504010904 | 64 | 274 | 0.0 | 1.0 | 0.00 | 0.00 | 0.00 | 64 | 1012.7 |
| 20260504010400 | 64 | 263 | 0.0 | 1.0 | 0.00 | 0.00 | 0.00 | 62 | 1012.7 |
| 20260504005856 | 65 | 262 | 0.0 | 1.0 | 0.00 | 0.00 | 0.00 | 63 | 1012.6 |
| 20260504005353 | 65 | 271 | 0.0 | 1.0 | 0.00 | 0.00 | 0.00 | 61 | 1012.6 |
| 20260504004845 | 66 | 284 | 0.0 | 2.0 | 0.00 | 0.00 | 0.00 | 59 | 1012.7 |
| 20260504004343 | 66 | 280 | 0.0 | 2.0 | 0.00 | 0.00 | 0.00 | 58 | 1012.7 |
| 20260504003839 | 66 | 270 | 1.0 | 2.0 | 0.00 | 0.00 | 0.00 | 59 | 1012.6 |
| 20260504003336 | 67 | 252 | 1.0 | 1.0 | 0.00 | 0.00 | 0.00 | 58 | 1012.8 |
| 20260504002832 | 67 | 264 | 0.0 | 2.0 | 0.00 | 0.00 | 0.00 | 56 | 1012.8 |
| 20260504002329 | 67 | 219 | 1.0 | 2.0 | 0.00 | 0.00 | 0.00 | 55 | 1012.9 |
| 20260504001827 | 68 | 256 | 3.0 | 5.0 | 0.00 | 0.00 | 0.00 | 53 | 1012.8 |
| 20260504001324 | 68 | 225 | 1.0 | 2.0 | 0.00 | 0.00 | 0.00 | 55 | 1012.8 |
| 20260504000821 | 69 | 273 | 0.0 | 1.0 | 0.00 | 0.00 | 0.00 | 52 | 1012.8 |
| 20260504000318 | 69 | 284 | 0.0 | 1.0 | 0.00 | 0.00 | 0.00 | 52 | 1012.9 |
| 20260503235815 | 69 | 280 | 1.0 | 2.0 | 0.00 | 0.00 | 0.00 | 51 | 1013.1 |
| 20260503235313 | 69 | 220 | 2.0 | 3.0 | 0.00 | 0.00 | 0.00 | 50 | 1012.9 |
| 20260503234810 | 70 | 266 | 1.0 | 1.0 | 0.00 | 0.00 | 0.00 | 50 | 1012.8 |
| 20260503234308 | 70 | 279 | 1.0 | 2.0 | 0.00 | 0.00 | 0.00 | 50 | 1012.8 |
| 20260503233806 | 70 | 253 | 3.0 | 5.0 | 0.00 | 0.00 | 0.00 | 49 | 1013.0 |
| 20260503233300 | 70 | 53 | 2.0 | 3.0 | 0.00 | 0.00 | 0.00 | 47 | 1013.0 |
| 20260503232758 | 70 | 310 | 1.0 | 3.0 | 0.00 | 0.00 | 0.00 | 49 | 1013.1 |
| 20260503232256 | 70 | 216 | 3.0 | 3.0 | 0.00 | 0.00 | 0.00 | 48 | 1013.1 |
| 20260503231754 | 71 | 279 | 0.0 | 2.0 | 0.00 | 0.00 | 0.00 | 48 | 1013.1 |
| 20260503231250 | 71 | 269 | 0.0 | 1.0 | 0.00 | 0.00 | 0.00 | 49 | 1013.2 |
| 20260503230746 | 71 | 193 | 3.0 | 6.0 | 0.00 | 0.00 | 0.00 | 46 | 1013.2 |
| 20260503230243 | 71 | 241 | 2.0 | 3.0 | 0.00 | 0.00 | 0.00 | 48 | 1013.2 |
| 20260503225741 | 71 | 296 | 0.0 | 2.0 | 0.00 | 0.00 | 0.00 | 49 | 1013.3 |
| 20260503225241 | 71 | 289 | 0.0 | 2.0 | 0.00 | 0.00 | 0.00 | 48 | 1013.4 |
| 20260503224738 | 71 | 222 | 1.0 | 5.0 | 0.00 | 0.00 | 0.00 | 46 | 1013.5 |
| 20260503224236 | 71 | 290 | 0.0 | 5.0 | 0.00 | 0.00 | 0.00 | 45 | 1013.6 |
| 20260503223733 | 71 | 219 | 2.0 | 3.0 | 0.00 | 0.00 | 0.00 | 44 | 1014.0 |
| 20260503223231 | 71 | 98 | 1.0 | 3.0 | 0.00 | 0.00 | 0.00 | 44 | 1013.8 |
| 20260503222727 | 72 | 194 | 4.0 | 7.0 | 0.00 | 0.00 | 0.00 | 43 | 1013.8 |
| 20260503222225 | 72 | 324 | 0.0 | 2.0 | 0.00 | 0.00 | 0.00 | 44 | 1013.8 |
| 20260503221723 | 72 | 267 | 1.0 | 5.0 | 0.00 | 0.00 | 0.00 | 43 | 1014.0 |
| 20260503221221 | 72 | 270 | 1.0 | 2.0 | 0.00 | 0.00 | 0.00 | 45 | 1014.0 |